Time,TemperatureF,DewpointF,PressureIn,WindDirection,WindDirectionDegrees,WindSpeedMPH,WindSpeedGustMPH,Humidity,HourlyPrecipIn,Conditions,Clouds,dailyrainin,SolarRadiationWatts/m^2,SoftwareType,DateUTC
2013-03-26 00:02:00,29.0,14.0,-100.00,North,6,0.0,0.0,53,0.00,,,0.00,0.000000,,2013-03-26 07:02:00,
2013-03-26 00:33:00,29.0,15.0,-100.00,NE,43,0.0,0.0,56,0.00,,,0.00,0.000000,,2013-03-26 07:33:00,
2013-03-26 00:43:00,29.0,15.0,-100.00,NE,43,0.0,0.0,56,0.00,,,0.00,0.000000,,2013-03-26 07:43:00,
2013-03-26 00:52:00,29.0,15.0,-100.00,NE,43,0.0,0.0,56,0.00,,,0.00,0.000000,,2013-03-26 07:52:00,
2013-03-26 01:02:00,29.0,15.0,-100.00,NE,43,0.0,0.0,56,0.00,,,0.00,0.000000,,2013-03-26 08:02:00,
2013-03-26 01:32:00,29.0,17.0,-100.00,NNW,328,0.0,0.0,61,0.00,,,0.00,0.000000,,2013-03-26 08:32:00,
2013-03-26 01:42:00,29.0,17.0,-100.00,NNW,328,0.0,0.0,61,0.00,,,0.00,0.000000,,2013-03-26 08:42:00,
2013-03-26 01:52:00,29.0,17.0,-100.00,NNW,328,0.0,0.0,61,0.00,,,0.00,0.000000,,2013-03-26 08:52:00,
2013-03-26 02:02:00,29.0,17.0,-100.00,NNW,328,0.0,0.0,61,0.00,,,0.00,0.000000,,2013-03-26 09:02:00,
2013-03-26 02:33:00,28.0,17.0,-100.00,NNW,344,0.0,0.0,62,0.00,,,0.00,0.000000,,2013-03-26 09:33:00,
2013-03-26 02:43:00,28.0,17.0,-100.00,NNW,344,0.0,0.0,62,0.00,,,0.00,0.000000,,2013-03-26 09:43:00,
2013-03-26 02:52:00,28.0,17.0,-100.00,NNW,344,0.0,0.0,62,0.00,,,0.00,0.000000,,2013-03-26 09:52:00,
2013-03-26 03:02:00,28.0,17.0,-100.00,NNW,344,0.0,0.0,62,0.00,,,0.00,0.000000,,2013-03-26 10:02:00,
2013-03-26 03:33:00,26.0,16.0,-100.00,NW,316,0.0,0.0,65,0.00,,,0.00,0.000000,,2013-03-26 10:33:00,
2013-03-26 03:42:00,26.0,16.0,-100.00,NW,316,0.0,0.0,65,0.00,,,0.00,0.000000,,2013-03-26 10:42:00,
2013-03-26 03:53:00,26.0,16.0,-100.00,NW,316,0.0,0.0,65,0.00,,,0.00,0.000000,,2013-03-26 10:53:00,
2013-03-26 04:02:00,26.0,16.0,-100.00,NW,316,0.0,0.0,65,0.00,,,0.00,0.000000,,2013-03-26 11:02:00,
2013-03-26 04:33:00,25.0,15.0,-100.00,NNE,28,0.0,0.0,66,0.00,,,0.00,0.000000,,2013-03-26 11:33:00,
2013-03-26 04:43:00,25.0,15.0,-100.00,NNE,28,0.0,0.0,66,0.00,,,0.00,0.000000,,2013-03-26 11:43:00,
2013-03-26 04:52:00,25.0,15.0,-100.00,NNE,28,0.0,0.0,66,0.00,,,0.00,0.000000,,2013-03-26 11:52:00,
2013-03-26 05:02:00,25.0,15.0,-100.00,NNE,28,0.0,0.0,66,0.00,,,0.00,0.000000,,2013-03-26 12:02:00,
2013-03-26 05:32:00,24.0,15.0,-100.00,NW,325,0.0,0.0,68,0.00,,,0.00,0.000000,,2013-03-26 12:32:00,
2013-03-26 05:43:00,24.0,15.0,-100.00,NW,325,0.0,0.0,68,0.00,,,0.00,0.000000,,2013-03-26 12:43:00,
2013-03-26 05:52:00,24.0,15.0,-100.00,NW,325,0.0,0.0,68,0.00,,,0.00,0.000000,,2013-03-26 12:52:00,
2013-03-26 06:02:00,24.0,15.0,-100.00,NW,325,0.0,0.0,68,0.00,,,0.00,0.000000,,2013-03-26 13:02:00,
2013-03-26 06:32:00,23.0,15.0,-100.00,NNW,329,0.0,0.0,70,0.00,,,0.00,0.000000,,2013-03-26 13:32:00,
2013-03-26 06:42:00,23.0,15.0,-100.00,NNW,329,0.0,0.0,70,0.00,,,0.00,0.000000,,2013-03-26 13:42:00,
2013-03-26 06:52:00,23.0,15.0,-100.00,NNW,329,0.0,0.0,70,0.00,,,0.00,0.000000,,2013-03-26 13:52:00,
2013-03-26 07:02:00,23.0,15.0,-100.00,NNW,329,0.0,0.0,70,0.00,,,0.00,0.000000,,2013-03-26 14:02:00,
2013-03-26 07:33:00,25.0,16.0,-100.00,NNW,330,0.0,0.0,68,0.00,,,0.00,21.000000,,2013-03-26 14:33:00,
2013-03-26 07:42:00,25.0,16.0,-100.00,NNW,330,0.0,0.0,68,0.00,,,0.00,21.000000,,2013-03-26 14:42:00,
2013-03-26 07:52:00,25.0,16.0,-100.00,NNW,330,0.0,0.0,68,0.00,,,0.00,21.000000,,2013-03-26 14:52:00,
2013-03-26 08:02:00,25.0,16.0,-100.00,NNW,330,0.0,0.0,68,0.00,,,0.00,21.000000,,2013-03-26 15:02:00,
2013-03-26 08:33:00,34.0,22.0,-100.00,NNW,335,0.0,0.0,61,0.00,,,0.00,121.000000,,2013-03-26 15:33:00,
2013-03-26 08:43:00,34.0,22.0,-100.00,NNW,335,0.0,0.0,61,0.00,,,0.00,121.000000,,2013-03-26 15:43:00,
2013-03-26 08:52:00,34.0,22.0,-100.00,NNW,335,0.0,0.0,61,0.00,,,0.00,121.000000,,2013-03-26 15:52:00,
2013-03-26 09:02:00,34.0,22.0,-100.00,NNW,335,0.0,0.0,61,0.00,,,0.00,121.000000,,2013-03-26 16:02:00,
2013-03-26 09:33:00,47.0,19.0,-100.00,SSW,207,5.0,9.0,33,0.00,,,0.00,302.000000,,2013-03-26 16:33:00,
2013-03-26 09:42:00,47.0,19.0,-100.00,SSW,207,5.0,9.0,33,0.00,,,0.00,302.000000,,2013-03-26 16:42:00,
2013-03-26 09:53:00,47.0,19.0,-100.00,SSW,207,5.0,9.0,33,0.00,,,0.00,302.000000,,2013-03-26 16:53:00,
2013-03-26 10:02:00,47.0,19.0,-100.00,SSW,207,5.0,9.0,33,0.00,,,0.00,302.000000,,2013-03-26 17:02:00,
2013-03-26 10:33:00,52.0,15.0,-100.00,SSW,212,11.0,18.0,23,0.00,,,0.00,560.000000,,2013-03-26 17:33:00,
2013-03-26 10:42:00,52.0,15.0,-100.00,SSW,212,11.0,18.0,23,0.00,,,0.00,560.000000,,2013-03-26 17:42:00,
2013-03-26 10:53:00,52.0,15.0,-100.00,SSW,212,11.0,18.0,23,0.00,,,0.00,560.000000,,2013-03-26 17:53:00,
2013-03-26 11:02:00,52.0,15.0,-100.00,SSW,212,11.0,18.0,23,0.00,,,0.00,560.000000,,2013-03-26 18:02:00,
2013-03-26 12:33:00,54.0,15.0,-100.00,SSW,213,10.0,20.0,21,-99.99,,,0.00,639.000000,,2013-03-26 19:33:00,
2013-03-26 12:42:00,54.0,15.0,-100.00,SSW,213,10.0,20.0,21,-99.99,,,0.00,639.000000,,2013-03-26 19:42:00,
2013-03-26 12:53:00,54.0,15.0,-100.00,SSW,213,10.0,20.0,21,-99.99,,,0.00,639.000000,,2013-03-26 19:53:00,
2013-03-26 13:02:00,54.0,15.0,-100.00,SSW,213,10.0,20.0,21,-99.99,,,0.00,639.000000,,2013-03-26 20:02:00,
2013-03-26 13:32:00,55.0,16.0,-100.00,SW,228,12.0,21.0,21,0.00,,,0.00,579.000000,,2013-03-26 20:32:00,
2013-03-26 13:43:00,55.0,16.0,-100.00,SW,228,12.0,21.0,21,0.00,,,0.00,579.000000,,2013-03-26 20:43:00,
2013-03-26 13:52:00,55.0,16.0,-100.00,SW,228,12.0,21.0,21,0.00,,,0.00,579.000000,,2013-03-26 20:52:00,
2013-03-26 14:02:00,55.0,16.0,-100.00,SW,228,12.0,21.0,21,0.00,,,0.00,579.000000,,2013-03-26 21:02:00,
2013-03-26 14:33:00,56.0,17.0,-100.00,SW,223,12.0,25.0,21,0.00,,,0.00,618.000000,,2013-03-26 21:33:00,
2013-03-26 14:43:00,56.0,17.0,-100.00,SW,223,12.0,25.0,21,0.00,,,0.00,618.000000,,2013-03-26 21:43:00,
2013-03-26 14:52:00,56.0,17.0,-100.00,SW,223,12.0,25.0,21,0.00,,,0.00,618.000000,,2013-03-26 21:52:00,
2013-03-26 15:01:00,56.0,17.0,-100.00,SW,223,12.0,25.0,21,0.00,,,0.00,618.000000,,2013-03-26 22:01:00,
2013-03-26 15:33:00,59.0,17.0,-100.00,SW,218,12.0,26.0,19,0.00,,,0.00,722.000000,,2013-03-26 22:33:00,
2013-03-26 15:42:00,59.0,17.0,-100.00,SW,218,12.0,26.0,19,0.00,,,0.00,722.000000,,2013-03-26 22:42:00,
2013-03-26 15:52:00,59.0,17.0,-100.00,SW,218,12.0,26.0,19,0.00,,,0.00,722.000000,,2013-03-26 22:52:00,
2013-03-26 16:00:00,59.0,17.0,-100.00,SW,218,12.0,26.0,19,0.00,,,0.00,722.000000,,2013-03-26 23:00:00,
2013-03-26 16:32:00,58.0,16.0,-100.00,SSW,213,12.0,23.0,19,0.00,,,0.00,542.000000,,2013-03-26 23:32:00,
2013-03-26 16:43:00,58.0,16.0,-100.00,SSW,213,12.0,23.0,19,0.00,,,0.00,542.000000,,2013-03-26 23:43:00,
2013-03-26 16:52:00,58.0,16.0,-100.00,SSW,213,12.0,23.0,19,0.00,,,0.00,542.000000,,2013-03-26 23:52:00,
2013-03-26 17:02:00,58.0,16.0,-100.00,SSW,213,12.0,23.0,19,0.00,,,0.00,542.000000,,2013-03-27 00:02:00,
2013-03-26 17:33:00,56.0,16.0,-100.00,SW,228,12.0,24.0,20,0.00,,,-99.99,341.000000,,2013-03-27 00:33:00,
2013-03-26 17:42:00,56.0,16.0,-100.00,SW,228,12.0,24.0,20,0.00,,,-99.99,341.000000,,2013-03-27 00:42:00,
2013-03-26 17:52:00,56.0,16.0,-100.00,SW,228,12.0,24.0,20,0.00,,,-99.99,341.000000,,2013-03-27 00:52:00,
2013-03-26 18:02:00,56.0,16.0,-100.00,SW,228,12.0,24.0,20,0.00,,,-99.99,341.000000,,2013-03-27 01:02:00,
2013-03-26 18:33:00,54.0,15.0,-100.00,SW,218,12.0,22.0,21,0.00,,,0.00,154.000000,,2013-03-27 01:33:00,
2013-03-26 18:42:00,54.0,15.0,-100.00,SW,218,12.0,22.0,21,0.00,,,0.00,154.000000,,2013-03-27 01:42:00,
2013-03-26 18:53:00,54.0,15.0,-100.00,SW,218,12.0,22.0,21,0.00,,,0.00,154.000000,,2013-03-27 01:53:00,
2013-03-26 19:02:00,54.0,15.0,-100.00,SW,218,12.0,22.0,21,0.00,,,0.00,154.000000,,2013-03-27 02:02:00,
2013-03-26 19:32:00,51.0,17.0,-100.00,SW,222,10.0,20.0,26,0.00,,,0.00,18.000000,,2013-03-27 02:32:00,
2013-03-26 19:42:00,51.0,17.0,-100.00,SW,222,10.0,20.0,26,0.00,,,0.00,18.000000,,2013-03-27 02:42:00,
2013-03-26 19:52:00,51.0,17.0,-100.00,SW,222,10.0,20.0,26,0.00,,,0.00,18.000000,,2013-03-27 02:52:00,
2013-03-26 20:02:00,51.0,17.0,-100.00,SW,222,10.0,20.0,26,0.00,,,0.00,18.000000,,2013-03-27 03:02:00,
2013-03-26 20:33:00,49.0,16.0,-100.00,SW,235,7.0,16.0,26,0.00,,,0.00,0.000000,,2013-03-27 03:33:00,
2013-03-26 20:42:00,49.0,16.0,-100.00,SW,235,7.0,16.0,26,0.00,,,0.00,0.000000,,2013-03-27 03:42:00,
2013-03-26 20:53:00,49.0,16.0,-100.00,SW,235,7.0,16.0,26,0.00,,,0.00,0.000000,,2013-03-27 03:53:00,
2013-03-26 21:02:00,49.0,16.0,-100.00,SW,235,7.0,16.0,26,0.00,,,0.00,0.000000,,2013-03-27 04:02:00,
2013-03-26 21:33:00,45.0,13.0,-100.00,WSW,242,2.0,13.0,27,0.00,,,0.00,0.000000,,2013-03-27 04:33:00,
2013-03-26 21:43:00,45.0,13.0,-100.00,WSW,242,2.0,13.0,27,0.00,,,0.00,0.000000,,2013-03-27 04:43:00,
2013-03-26 21:52:00,45.0,13.0,-100.00,WSW,242,2.0,13.0,27,0.00,,,0.00,0.000000,,2013-03-27 04:52:00,
2013-03-26 22:02:00,45.0,13.0,-100.00,WSW,242,2.0,13.0,27,0.00,,,0.00,0.000000,,2013-03-27 05:02:00,
2013-03-26 22:33:00,36.0,15.0,-100.00,NE,52,0.0,0.0,42,0.00,,,0.00,0.000000,,2013-03-27 05:33:00,
2013-03-26 22:42:00,36.0,15.0,-100.00,NE,52,0.0,0.0,42,0.00,,,0.00,0.000000,,2013-03-27 05:42:00,
2013-03-26 22:52:00,36.0,15.0,-100.00,NE,52,0.0,0.0,42,0.00,,,0.00,0.000000,,2013-03-27 05:52:00,
2013-03-26 23:02:00,36.0,15.0,-100.00,NE,52,0.0,0.0,42,0.00,,,0.00,0.000000,,2013-03-27 06:02:00,
2013-03-26 23:32:00,32.0,15.0,-100.00,ENE,71,0.0,0.0,48,0.00,,,-99.99,0.000000,,2013-03-27 06:32:00,
2013-03-26 23:42:00,32.0,15.0,-100.00,ENE,71,0.0,0.0,48,0.00,,,-99.99,0.000000,,2013-03-27 06:42:00,
2013-03-26 23:53:00,32.0,15.0,-100.00,ENE,71,0.0,0.0,48,0.00,,,-99.99,0.000000,,2013-03-27 06:53:00,